YHZ weather

Halifax / Stanfield International Airport
Halifax, Nova Scotia, Canada

Public forecast

Using degrees Celsius for public forecast. Weather courtesy of forecast.io.

Current aviation weather report (METAR) for Halifax / Stanfield International Airport

Retrieved 2019/11/15 12:00 UTC (29 minutes ago):

CYHZ 151200Z 16010G16KT 15SM FEW020 FEW070 SCT120 BKN150 BKN260 04/02 A3021 RMK SC1AC1AC2AC2CI1 SLP239

Aviation forecast (TAF) for Halifax / Stanfield International Airport

Retrieved 2019/11/15 12:42 UTC (0 seconds ago):

TAF CYHZ 151138Z 1512/1612 14008KT P6SM BKN030 BKN160 BECMG 1512/1514 18015KT FM151500 19015G25KT 5SM -RA BR OVC012 TEMPO 1515/1521 P6SM -RA SCT010 OVC030 FM152100 23015G25KT P6SM BKN025 BECMG 1604/1606 25012G22KT FM160600 26012G22KT P6SM -SHRA BKN030 FM161100 30017G32KT P6SM SCT030 RMK NXT FCST BY 151500Z